sensor_id;sensor_type;location;lat;lon;timestamp;pressure;altitude;pressure_sealevel;temperature;humidity
28628;BME280;15815;46.760;19.604;2022-12-31T00:01:49;101058.34;;;4.73;100.00
28628;BME280;15815;46.760;19.604;2022-12-31T00:04:15;101050.69;;;4.70;100.00
28628;BME280;15815;46.760;19.604;2022-12-31T00:06:40;101067.41;;;4.82;100.00
28628;BME280;15815;46.760;19.604;2022-12-31T00:09:06;101056.03;;;4.87;100.00
28628;BME280;15815;46.760;19.604;2022-12-31T00:11:33;101058.34;;;4.85;100.00
28628;BME280;15815;46.760;19.604;2022-12-31T00:14:00;101059.50;;;4.84;100.00
28628;BME280;15815;46.760;19.604;2022-12-31T00:16:29;101062.75;;;4.86;100.00
28628;BME280;15815;46.760;19.604;2022-12-31T00:18:57;101056.97;;;4.79;100.00
28628;BME280;15815;46.760;19.604;2022-12-31T00:21:28;101032.22;;;4.65;100.00
28628;BME280;15815;46.760;19.604;2022-12-31T00:23:54;101061.03;;;4.81;100.00
28628;BME280;15815;46.760;19.604;2022-12-31T00:26:25;101066.00;;;4.88;100.00
28628;BME280;15815;46.760;19.604;2022-12-31T00:28:54;101063.69;;;4.90;100.00
28628;BME280;15815;46.760;19.604;2022-12-31T00:31:26;101053.94;;;4.84;100.00
28628;BME280;15815;46.760;19.604;2022-12-31T00:33:52;101044.19;;;4.78;100.00
28628;BME280;15815;46.760;19.604;2022-12-31T00:36:27;101064.38;;;4.87;100.00
28628;BME280;15815;46.760;19.604;2022-12-31T00:38:55;101057.19;;;4.86;100.00
28628;BME280;15815;46.760;19.604;2022-12-31T00:41:22;101064.72;;;4.85;100.00
28628;BME280;15815;46.760;19.604;2022-12-31T00:43:48;101046.75;;;4.83;100.00
28628;BME280;15815;46.760;19.604;2022-12-31T00:46:14;101075.28;;;4.92;100.00
28628;BME280;15815;46.760;19.604;2022-12-31T00:48:40;101083.31;;;4.93;100.00
28628;BME280;15815;46.760;19.604;2022-12-31T00:51:10;101062.16;;;4.92;100.00
28628;BME280;15815;46.760;19.604;2022-12-31T00:53:36;101058.81;;;4.87;100.00
28628;BME280;15815;46.760;19.604;2022-12-31T00:56:10;101067.75;;;4.92;100.00
28628;BME280;15815;46.760;19.604;2022-12-31T00:58:37;101062.97;;;4.93;100.00
28628;BME280;15815;46.760;19.604;2022-12-31T01:01:22;101064.16;;;4.92;100.00
28628;BME280;15815;46.760;19.604;2022-12-31T01:03:51;101077.41;;;4.95;100.00
28628;BME280;15815;46.760;19.604;2022-12-31T01:06:24;101087.84;;;4.98;100.00
28628;BME280;15815;46.760;19.604;2022-12-31T01:08:51;101076.59;;;4.94;100.00
28628;BME280;15815;46.760;19.604;2022-12-31T01:11:17;101070.66;;;4.96;100.00
28628;BME280;15815;46.760;19.604;2022-12-31T01:13:43;101072.75;;;4.99;100.00
28628;BME280;15815;46.760;19.604;2022-12-31T01:16:10;101066.25;;;4.95;100.00
28628;BME280;15815;46.760;19.604;2022-12-31T01:18:36;101045.94;;;4.82;100.00
28628;BME280;15815;46.760;19.604;2022-12-31T01:21:09;101066.03;;;5.00;100.00
28628;BME280;15815;46.760;19.604;2022-12-31T01:23:35;101077.97;;;5.01;100.00
28628;BME280;15815;46.760;19.604;2022-12-31T01:26:06;101069.72;;;5.04;100.00
28628;BME280;15815;46.760;19.604;2022-12-31T01:28:33;101064.94;;;4.92;100.00
28628;BME280;15815;46.760;19.604;2022-12-31T01:31:08;101070.66;;;4.96;100.00
28628;BME280;15815;46.760;19.604;2022-12-31T01:33:35;101085.41;;;5.09;100.00
28628;BME280;15815;46.760;19.604;2022-12-31T01:36:15;101061.16;;;4.97;100.00
28628;BME280;15815;46.760;19.604;2022-12-31T01:38:42;101068.81;;;5.00;100.00
28628;BME280;15815;46.760;19.604;2022-12-31T01:41:13;101065.22;;;5.00;100.00
28628;BME280;15815;46.760;19.604;2022-12-31T01:43:56;101084.69;;;5.12;100.00
28628;BME280;15815;46.760;19.604;2022-12-31T01:49:01;101061.84;;;5.06;100.00
28628;BME280;15815;46.760;19.604;2022-12-31T01:51:30;101055.09;;;5.07;100.00
28628;BME280;15815;46.760;19.604;2022-12-31T01:53:58;101049.53;;;5.07;100.00
28628;BME280;15815;46.760;19.604;2022-12-31T01:56:27;101061.34;;;5.16;100.00
28628;BME280;15815;46.760;19.604;2022-12-31T01:58:54;101063.31;;;5.16;100.00
28628;BME280;15815;46.760;19.604;2022-12-31T02:01:25;101065.31;;;5.15;100.00
28628;BME280;15815;46.760;19.604;2022-12-31T02:03:52;101063.69;;;5.14;100.00
28628;BME280;15815;46.760;19.604;2022-12-31T02:06:22;101050.78;;;5.10;100.00
28628;BME280;15815;46.760;19.604;2022-12-31T02:08:50;101026.44;;;4.94;100.00
28628;BME280;15815;46.760;19.604;2022-12-31T02:13:48;101063.69;;;5.14;100.00
28628;BME280;15815;46.760;19.604;2022-12-31T02:16:24;101045.81;;;5.03;100.00
28628;BME280;15815;46.760;19.604;2022-12-31T02:19:21;101057.63;;;5.12;100.00
28628;BME280;15815;46.760;19.604;2022-12-31T02:30:54;101055.66;;;5.13;100.00
28628;BME280;15815;46.760;19.604;2022-12-31T02:33:32;101052.88;;;5.13;100.00
28628;BME280;15815;46.760;19.604;2022-12-31T02:36:27;101059.97;;;5.10;100.00
28628;BME280;15815;46.760;19.604;2022-12-31T02:38:54;101062.88;;;5.14;100.00
28628;BME280;15815;46.760;19.604;2022-12-31T02:41:22;101030.16;;;4.99;100.00
28628;BME280;15815;46.760;19.604;2022-12-31T02:43:48;101074.13;;;5.17;100.00
28628;BME280;15815;46.760;19.604;2022-12-31T02:46:33;101063.91;;;5.09;100.00
28628;BME280;15815;46.760;19.604;2022-12-31T02:49:06;101083.66;;;5.16;100.00
28628;BME280;15815;46.760;19.604;2022-12-31T02:51:48;101085.72;;;5.19;100.00
28628;BME280;15815;46.760;19.604;2022-12-31T02:54:25;101075.06;;;5.21;100.00
28628;BME280;15815;46.760;19.604;2022-12-31T02:57:04;101054.03;;;5.12;100.00
28628;BME280;15815;46.760;19.604;2022-12-31T03:00:17;101073.56;;;5.24;100.00
28628;BME280;15815;46.760;19.604;2022-12-31T03:02:26;101055.06;;;5.19;100.00
28628;BME280;15815;46.760;19.604;2022-12-31T03:04:55;101070.53;;;5.29;100.00
28628;BME280;15815;46.760;19.604;2022-12-31T03:07:27;101060.78;;;5.23;100.00
28628;BME280;15815;46.760;19.604;2022-12-31T03:09:56;101064.69;;;5.34;100.00
28628;BME280;15815;46.760;19.604;2022-12-31T03:12:28;101048.22;;;5.29;100.00
28628;BME280;15815;46.760;19.604;2022-12-31T03:14:54;101048.34;;;5.33;100.00
28628;BME280;15815;46.760;19.604;2022-12-31T03:19:52;101061.06;;;5.46;100.00
28628;BME280;15815;46.760;19.604;2022-12-31T03:22:17;101068.75;;;5.49;100.00
28628;BME280;15815;46.760;19.604;2022-12-31T03:24:43;101044.59;;;5.41;100.00
28628;BME280;15815;46.760;19.604;2022-12-31T03:27:09;101030.19;;;5.39;100.00
28628;BME280;15815;46.760;19.604;2022-12-31T03:29:34;101046.78;;;5.47;100.00
28628;BME280;15815;46.760;19.604;2022-12-31T03:32:00;101040.63;;;5.42;100.00
28628;BME280;15815;46.760;19.604;2022-12-31T03:34:25;101051.09;;;5.45;100.00
28628;BME280;15815;46.760;19.604;2022-12-31T03:36:51;101065.25;;;5.52;100.00
28628;BME280;15815;46.760;19.604;2022-12-31T03:39:16;101060.84;;;5.51;100.00
28628;BME280;15815;46.760;19.604;2022-12-31T03:41:42;101061.56;;;5.48;100.00
28628;BME280;15815;46.760;19.604;2022-12-31T03:44:07;101046.72;;;5.32;100.00
28628;BME280;15815;46.760;19.604;2022-12-31T03:46:33;101060.41;;;5.37;100.00
28628;BME280;15815;46.760;19.604;2022-12-31T03:48:58;101038.94;;;5.25;100.00
28628;BME280;15815;46.760;19.604;2022-12-31T03:51:24;101055.41;;;5.30;100.00
28628;BME280;15815;46.760;19.604;2022-12-31T03:53:49;101025.38;;;5.11;100.00
28628;BME280;15815;46.760;19.604;2022-12-31T03:58:46;101072.16;;;5.30;100.00
28628;BME280;15815;46.760;19.604;2022-12-31T04:01:16;101058.66;;;5.20;100.00
28628;BME280;15815;46.760;19.604;2022-12-31T04:03:42;101066.22;;;5.19;100.00
28628;BME280;15815;46.760;19.604;2022-12-31T04:06:08;101068.53;;;5.17;100.00
28628;BME280;15815;46.760;19.604;2022-12-31T04:08:33;101068.91;;;5.16;100.00
28628;BME280;15815;46.760;19.604;2022-12-31T04:10:59;101080.84;;;5.16;100.00
28628;BME280;15815;46.760;19.604;2022-12-31T04:13:24;101064.97;;;5.05;100.00
28628;BME280;15815;46.760;19.604;2022-12-31T04:15:50;101075.88;;;4.97;100.00
28628;BME280;15815;46.760;19.604;2022-12-31T04:18:15;101062.75;;;4.86;100.00
28628;BME280;15815;46.760;19.604;2022-12-31T04:20:41;101064.38;;;4.87;100.00
28628;BME280;15815;46.760;19.604;2022-12-31T04:23:07;101076.22;;;4.84;100.00
28628;BME280;15815;46.760;19.604;2022-12-31T04:25:33;101069.59;;;4.88;100.00
28628;BME280;15815;46.760;19.604;2022-12-31T04:27:58;101063.00;;;4.81;100.00
28628;BME280;15815;46.760;19.604;2022-12-31T04:30:24;101065.44;;;4.82;100.00
28628;BME280;15815;46.760;19.604;2022-12-31T04:32:50;101068.78;;;4.88;100.00
28628;BME280;15815;46.760;19.604;2022-12-31T04:35:15;101035.97;;;4.69;100.00
28628;BME280;15815;46.760;19.604;2022-12-31T04:37:41;101057.88;;;4.83;100.00
28628;BME280;15815;46.760;19.604;2022-12-31T04:40:07;101048.13;;;4.77;100.00
28628;BME280;15815;46.760;19.604;2022-12-31T04:42:33;101032.38;;;4.69;100.00
28628;BME280;15815;46.760;19.604;2022-12-31T04:45:03;101055.78;;;4.92;100.00
28628;BME280;15815;46.760;19.604;2022-12-31T04:47:31;101034.22;;;4.77;100.00
28628;BME280;15815;46.760;19.604;2022-12-31T04:49:57;101051.84;;;4.93;100.00
28628;BME280;15815;46.760;19.604;2022-12-31T04:52:24;101052.06;;;4.88;100.00
28628;BME280;15815;46.760;19.604;2022-12-31T04:54:49;101039.53;;;4.82;100.00
28628;BME280;15815;46.760;19.604;2022-12-31T04:57:15;101061.03;;;4.93;100.00
28628;BME280;15815;46.760;19.604;2022-12-31T04:59:40;101038.38;;;4.83;100.00
28628;BME280;15815;46.760;19.604;2022-12-31T05:02:06;101062.97;;;4.93;100.00
28628;BME280;15815;46.760;19.604;2022-12-31T05:04:33;101039.91;;;4.80;100.00
28628;BME280;15815;46.760;19.604;2022-12-31T05:06:59;101059.28;;;4.89;100.00
28628;BME280;15815;46.760;19.604;2022-12-31T05:09:24;101042.34;;;4.70;100.00
28628;BME280;15815;46.760;19.604;2022-12-31T05:11:50;101054.97;;;4.79;100.00
28628;BME280;15815;46.760;19.604;2022-12-31T05:14:18;101051.72;;;4.65;100.00
28628;BME280;15815;46.760;19.604;2022-12-31T05:16:44;101071.59;;;4.76;100.00
28628;BME280;15815;46.760;19.604;2022-12-31T05:19:09;101051.72;;;4.65;100.00
28628;BME280;15815;46.760;19.604;2022-12-31T05:21:37;101081.78;;;4.72;100.00
28628;BME280;15815;46.760;19.604;2022-12-31T05:24:03;101075.50;;;4.62;100.00
28628;BME280;15815;46.760;19.604;2022-12-31T05:26:29;101088.25;;;4.63;100.00
28628;BME280;15815;46.760;19.604;2022-12-31T05:28:54;101083.16;;;4.53;100.00
28628;BME280;15815;46.760;19.604;2022-12-31T05:31:20;101075.13;;;4.40;100.00
28628;BME280;15815;46.760;19.604;2022-12-31T05:33:45;101076.53;;;4.46;100.00
28628;BME280;15815;46.760;19.604;2022-12-31T05:36:11;101089.06;;;4.52;100.00
28628;BME280;15815;46.760;19.604;2022-12-31T05:38:39;101091.59;;;4.45;100.00
28628;BME280;15815;46.760;19.604;2022-12-31T05:41:06;101109.41;;;4.31;100.00
28628;BME280;15815;46.760;19.604;2022-12-31T05:43:32;101108.34;;;4.24;100.00
28628;BME280;15815;46.760;19.604;2022-12-31T05:46:03;101102.19;;;4.18;100.00
28628;BME280;15815;46.760;19.604;2022-12-31T05:48:30;101123.75;;;4.21;100.00
28628;BME280;15815;46.760;19.604;2022-12-31T05:50:56;101118.06;;;4.18;100.00
28628;BME280;15815;46.760;19.604;2022-12-31T05:53:24;101136.66;;;4.26;100.00
28628;BME280;15815;46.760;19.604;2022-12-31T05:55:50;101123.75;;;4.21;100.00
28628;BME280;15815;46.760;19.604;2022-12-31T05:58:17;101141.75;;;4.24;100.00
28628;BME280;15815;46.760;19.604;2022-12-31T06:00:42;101139.88;;;4.16;100.00
28628;BME280;15815;46.760;19.604;2022-12-31T06:03:08;101129.88;;;4.15;100.00
28628;BME280;15815;46.760;19.604;2022-12-31T06:05:39;101136.63;;;4.14;100.00
28628;BME280;15815;46.760;19.604;2022-12-31T06:08:07;101124.72;;;4.04;100.00
28628;BME280;15815;46.760;19.604;2022-12-31T06:10:33;101152.53;;;4.25;100.00
28628;BME280;15815;46.760;19.604;2022-12-31T06:13:00;101161.94;;;4.33;100.00
28628;BME280;15815;46.760;19.604;2022-12-31T06:15:26;101140.13;;;4.23;100.00
28628;BME280;15815;46.760;19.604;2022-12-31T06:17:51;101133.41;;;4.24;100.00
28628;BME280;15815;46.760;19.604;2022-12-31T06:20:17;101139.44;;;4.26;100.00
28628;BME280;15815;46.760;19.604;2022-12-31T06:22:46;101142.69;;;4.28;100.00
28628;BME280;15815;46.760;19.604;2022-12-31T06:25:11;101156.38;;;4.33;100.00
28628;BME280;15815;46.760;19.604;2022-12-31T06:27:37;101158.00;;;4.34;100.00
28628;BME280;15815;46.760;19.604;2022-12-31T06:30:03;101157.72;;;4.48;100.00
28628;BME280;15815;46.760;19.604;2022-12-31T06:32:29;101163.16;;;4.44;100.00
28628;BME280;15815;46.760;19.604;2022-12-31T06:34:57;101179.34;;;4.63;100.00
28628;BME280;15815;46.760;19.604;2022-12-31T06:37:23;101164.47;;;4.59;100.00
28628;BME280;15815;46.760;19.604;2022-12-31T06:39:48;101158.09;;;4.58;100.00
28628;BME280;15815;46.760;19.604;2022-12-31T06:42:17;101164.59;;;4.62;100.00
28628;BME280;15815;46.760;19.604;2022-12-31T06:44:42;101151.53;;;4.75;100.00
28628;BME280;15815;46.760;19.604;2022-12-31T06:47:08;101180.94;;;4.97;100.00
28628;BME280;15815;46.760;19.604;2022-12-31T06:49:33;101174.81;;;5.04;100.00
28628;BME280;15815;46.760;19.604;2022-12-31T06:51:59;101182.34;;;5.15;100.00
28628;BME280;15815;46.760;19.604;2022-12-31T06:54:24;101189.34;;;5.34;100.00
28628;BME280;15815;46.760;19.604;2022-12-31T06:56:50;101175.88;;;5.36;100.00
28628;BME280;15815;46.760;19.604;2022-12-31T06:59:25;101187.16;;;5.51;100.00
28628;BME280;15815;46.760;19.604;2022-12-31T07:07:33;101208.28;;;6.29;100.00
28628;BME280;15815;46.760;19.604;2022-12-31T07:10:21;101197.53;;;6.71;100.00
28628;BME280;15815;46.760;19.604;2022-12-31T07:18:45;101212.75;;;8.74;100.00
28628;BME280;15815;46.760;19.604;2022-12-31T07:21:18;101224.03;;;9.19;100.00
28628;BME280;15815;46.760;19.604;2022-12-31T07:23:47;101229.91;;;9.11;100.00
28628;BME280;15815;46.760;19.604;2022-12-31T07:34:59;101241.72;;;9.92;100.00
28628;BME280;15815;46.760;19.604;2022-12-31T07:42:33;101229.97;;;9.60;100.00
28628;BME280;15815;46.760;19.604;2022-12-31T07:45:03;101238.19;;;9.49;100.00
28628;BME280;15815;46.760;19.604;2022-12-31T07:47:35;101222.84;;;9.43;100.00
28628;BME280;15815;46.760;19.604;2022-12-31T07:50:00;101231.88;;;9.56;100.00
28628;BME280;15815;46.760;19.604;2022-12-31T07:52:26;101244.81;;;9.60;99.05
28628;BME280;15815;46.760;19.604;2022-12-31T07:54:52;101235.25;;;9.65;98.52
28628;BME280;15815;46.760;19.604;2022-12-31T07:57:19;101246.50;;;9.91;96.82
28628;BME280;15815;46.760;19.604;2022-12-31T08:00:03;101268.22;;;10.47;96.36
28628;BME280;15815;46.760;19.604;2022-12-31T08:05:38;101286.41;;;10.87;94.20
28628;BME280;15815;46.760;19.604;2022-12-31T08:11:03;101273.41;;;11.90;91.58
28628;BME280;15815;46.760;19.604;2022-12-31T08:13:34;101263.72;;;12.50;93.15
28628;BME280;15815;46.760;19.604;2022-12-31T08:16:01;101262.66;;;12.86;93.42
28628;BME280;15815;46.760;19.604;2022-12-31T08:18:26;101278.75;;;12.75;96.87
28628;BME280;15815;46.760;19.604;2022-12-31T08:24:04;101282.72;;;11.98;88.80
28628;BME280;15815;46.760;19.604;2022-12-31T08:26:35;101298.38;;;11.95;91.03
28628;BME280;15815;46.760;19.604;2022-12-31T08:29:35;101294.94;;;12.16;88.41
28628;BME280;15815;46.760;19.604;2022-12-31T08:32:24;101299.84;;;13.10;83.98
28628;BME280;15815;46.760;19.604;2022-12-31T08:35:03;101299.22;;;13.95;82.84
28628;BME280;15815;46.760;19.604;2022-12-31T08:37:37;101316.78;;;15.02;82.53
28628;BME280;15815;46.760;19.604;2022-12-31T08:40:20;101309.31;;;15.43;77.61
28628;BME280;15815;46.760;19.604;2022-12-31T08:42:56;101322.97;;;16.18;84.83
28628;BME280;15815;46.760;19.604;2022-12-31T08:45:33;101334.34;;;16.93;85.32
28628;BME280;15815;46.760;19.604;2022-12-31T08:48:04;101323.19;;;17.10;80.92
28628;BME280;15815;46.760;19.604;2022-12-31T08:50:38;101328.38;;;17.76;83.00
28628;BME280;15815;46.760;19.604;2022-12-31T08:53:04;101315.13;;;17.66;85.01
28628;BME280;15815;46.760;19.604;2022-12-31T08:55:30;101324.44;;;16.75;85.31
28628;BME280;15815;46.760;19.604;2022-12-31T08:58:34;101333.75;;;16.34;76.51
28628;BME280;15815;46.760;19.604;2022-12-31T09:01:04;101336.38;;;16.11;74.36
28628;BME280;15815;46.760;19.604;2022-12-31T09:06:09;101327.88;;;17.84;66.61
28628;BME280;15815;46.760;19.604;2022-12-31T09:12:03;101326.41;;;18.70;62.20
28628;BME280;15815;46.760;19.604;2022-12-31T09:19:45;101357.28;;;19.11;65.03
28628;BME280;15815;46.760;19.604;2022-12-31T09:22:10;101346.25;;;18.50;65.31
28628;BME280;15815;46.760;19.604;2022-12-31T09:24:39;101344.69;;;17.72;61.10
28628;BME280;15815;46.760;19.604;2022-12-31T09:27:12;101348.56;;;17.24;59.90
28628;BME280;15815;46.760;19.604;2022-12-31T09:32:18;101357.50;;;16.92;60.27
28628;BME280;15815;46.760;19.604;2022-12-31T09:37:34;101348.50;;;16.18;62.30
28628;BME280;15815;46.760;19.604;2022-12-31T09:51:31;101360.88;;;15.87;63.76
28628;BME280;15815;46.760;19.604;2022-12-31T09:54:03;101361.28;;;15.85;64.51
28628;BME280;15815;46.760;19.604;2022-12-31T09:56:36;101339.19;;;15.55;66.29
28628;BME280;15815;46.760;19.604;2022-12-31T09:59:12;101372.38;;;15.58;65.87
28628;BME280;15815;46.760;19.604;2022-12-31T10:01:49;101352.94;;;15.60;65.02
28628;BME280;15815;46.760;19.604;2022-12-31T10:04:45;101329.56;;;15.38;64.98
28628;BME280;15815;46.760;19.604;2022-12-31T10:13:04;101351.91;;;16.85;65.09
28628;BME280;15815;46.760;19.604;2022-12-31T10:19:05;101351.09;;;17.18;63.27
28628;BME280;15815;46.760;19.604;2022-12-31T10:22:13;101348.72;;;17.74;65.77
28628;BME280;15815;46.760;19.604;2022-12-31T10:30:22;101355.06;;;16.90;66.04
28628;BME280;15815;46.760;19.604;2022-12-31T10:33:14;101337.56;;;16.58;63.41
28628;BME280;15815;46.760;19.604;2022-12-31T10:35:52;101355.94;;;16.43;66.49
28628;BME280;15815;46.760;19.604;2022-12-31T10:38:48;101331.06;;;16.20;64.28
28628;BME280;15815;46.760;19.604;2022-12-31T10:50:07;101335.75;;;15.85;66.87
28628;BME280;15815;46.760;19.604;2022-12-31T11:03:19;101319.81;;;15.46;69.49
28628;BME280;15815;46.760;19.604;2022-12-31T11:17:19;101276.41;;;16.12;68.35
28628;BME280;15815;46.760;19.604;2022-12-31T11:40:07;101267.56;;;16.03;70.26
28628;BME280;15815;46.760;19.604;2022-12-31T11:43:00;101269.56;;;16.06;68.03
28628;BME280;15815;46.760;19.604;2022-12-31T11:48:41;101295.88;;;16.10;67.80
28628;BME280;15815;46.760;19.604;2022-12-31T11:54:28;101288.16;;;16.11;69.92
28628;BME280;15815;46.760;19.604;2022-12-31T11:59:40;101271.00;;;15.80;70.67
28628;BME280;15815;46.760;19.604;2022-12-31T12:04:49;101255.78;;;15.60;69.85
28628;BME280;15815;46.760;19.604;2022-12-31T12:07:16;101265.50;;;15.62;70.84
28628;BME280;15815;46.760;19.604;2022-12-31T12:09:43;101262.25;;;15.60;69.59
28628;BME280;15815;46.760;19.604;2022-12-31T12:12:09;101280.44;;;15.66;70.75
28628;BME280;15815;46.760;19.604;2022-12-31T12:14:38;101278.41;;;15.67;70.59
28628;BME280;15815;46.760;19.604;2022-12-31T12:17:13;101271.53;;;15.68;70.36
28628;BME280;15815;46.760;19.604;2022-12-31T12:19:45;101283.53;;;15.83;70.85
28628;BME280;15815;46.760;19.604;2022-12-31T12:22:12;101258.00;;;15.86;71.63
28628;BME280;15815;46.760;19.604;2022-12-31T12:24:38;101263.66;;;15.90;71.38
28628;BME280;15815;46.760;19.604;2022-12-31T12:27:04;101281.22;;;16.15;71.55
28628;BME280;15815;46.760;19.604;2022-12-31T12:29:34;101278.25;;;15.85;69.16
28628;BME280;15815;46.760;19.604;2022-12-31T12:32:05;101271.38;;;15.86;69.57
28628;BME280;15815;46.760;19.604;2022-12-31T12:34:34;101261.31;;;15.77;69.83
28628;BME280;15815;46.760;19.604;2022-12-31T12:36:59;101267.31;;;15.87;72.46
28628;BME280;15815;46.760;19.604;2022-12-31T12:39:27;101283.09;;;15.88;69.98
28628;BME280;15815;46.760;19.604;2022-12-31T12:42:10;101264.16;;;15.77;69.80
28628;BME280;15815;46.760;19.604;2022-12-31T12:44:37;101265.38;;;15.76;71.58
28628;BME280;15815;46.760;19.604;2022-12-31T12:47:05;101287.56;;;15.85;70.73
28628;BME280;15815;46.760;19.604;2022-12-31T12:49:37;101287.94;;;15.91;70.91
28628;BME280;15815;46.760;19.604;2022-12-31T12:57:28;101260.97;;;15.72;71.29
28628;BME280;15815;46.760;19.604;2022-12-31T13:00:12;101254.09;;;15.69;70.58
28628;BME280;15815;46.760;19.604;2022-12-31T13:02:54;101259.31;;;15.74;70.68
28628;BME280;15815;46.760;19.604;2022-12-31T13:08:47;101268.56;;;15.82;69.82
28628;BME280;15815;46.760;19.604;2022-12-31T13:19:33;101263.66;;;15.86;68.27
28628;BME280;15815;46.760;19.604;2022-12-31T13:22:18;101260.41;;;15.88;69.31
28628;BME280;15815;46.760;19.604;2022-12-31T13:27:56;101281.44;;;15.94;69.06
28628;BME280;15815;46.760;19.604;2022-12-31T13:30:27;101275.88;;;15.80;68.90
28628;BME280;15815;46.760;19.604;2022-12-31T13:35:35;101270.22;;;15.80;70.03
28628;BME280;15815;46.760;19.604;2022-12-31T13:38:42;101276.84;;;15.62;68.07
28628;BME280;15815;46.760;19.604;2022-12-31T13:41:29;101278.47;;;15.53;69.55
28628;BME280;15815;46.760;19.604;2022-12-31T13:46:46;101287.44;;;15.44;70.24
28628;BME280;15815;46.760;19.604;2022-12-31T13:49:35;101267.34;;;15.21;69.95
28628;BME280;15815;46.760;19.604;2022-12-31T13:52:23;101300.50;;;15.24;70.67
28628;BME280;15815;46.760;19.604;2022-12-31T13:55:02;101290.84;;;15.14;70.70
28628;BME280;15815;46.760;19.604;2022-12-31T14:00:08;101296.94;;;15.05;71.98
28628;BME280;15815;46.760;19.604;2022-12-31T14:05:49;101294.97;;;14.95;72.11
28628;BME280;15815;46.760;19.604;2022-12-31T14:08:16;101298.22;;;14.94;72.65
28628;BME280;15815;46.760;19.604;2022-12-31T14:16:47;101291.81;;;14.79;72.48
28628;BME280;15815;46.760;19.604;2022-12-31T14:25:15;101304.38;;;14.71;73.53
28628;BME280;15815;46.760;19.604;2022-12-31T14:27:43;101302.41;;;14.57;74.13
28628;BME280;15815;46.760;19.604;2022-12-31T14:30:20;101316.13;;;14.51;73.40
28628;BME280;15815;46.760;19.604;2022-12-31T14:38:01;101310.50;;;14.30;73.66
28628;BME280;15815;46.760;19.604;2022-12-31T14:40:47;101325.06;;;14.25;74.37
28628;BME280;15815;46.760;19.604;2022-12-31T14:48:44;101350.09;;;14.23;75.11
28628;BME280;15815;46.760;19.604;2022-12-31T14:51:12;101343.22;;;14.17;75.06
28628;BME280;15815;46.760;19.604;2022-12-31T14:53:38;101351.31;;;14.11;75.25
28628;BME280;15815;46.760;19.604;2022-12-31T14:56:23;101350.09;;;14.09;75.63
28628;BME280;15815;46.760;19.604;2022-12-31T14:58:56;101337.19;;;13.97;75.17
28628;BME280;15815;46.760;19.604;2022-12-31T15:01:21;101333.94;;;13.95;75.69
28628;BME280;15815;46.760;19.604;2022-12-31T15:03:47;101324.25;;;13.85;75.72
28628;BME280;15815;46.760;19.604;2022-12-31T15:12:17;101332.31;;;13.90;75.63
28628;BME280;15815;46.760;19.604;2022-12-31T15:15:08;101337.16;;;13.79;75.80
28628;BME280;15815;46.760;19.604;2022-12-31T15:20:40;101337.94;;;13.58;76.27
28628;BME280;15815;46.760;19.604;2022-12-31T15:23:24;101344.78;;;13.47;77.36
28628;BME280;15815;46.760;19.604;2022-12-31T15:25:59;101346.78;;;13.43;76.87
28628;BME280;15815;46.760;19.604;2022-12-31T15:31:18;101336.63;;;13.20;77.64
28628;BME280;15815;46.760;19.604;2022-12-31T15:36:24;101357.91;;;13.07;77.94
28628;BME280;15815;46.760;19.604;2022-12-31T15:38:50;101349.81;;;13.02;78.02
28628;BME280;15815;46.760;19.604;2022-12-31T15:41:35;101354.25;;;12.99;78.58
28628;BME280;15815;46.760;19.604;2022-12-31T15:44:16;101339.22;;;12.78;79.42
28628;BME280;15815;46.760;19.604;2022-12-31T15:46:46;101356.25;;;12.92;79.00
28628;BME280;15815;46.760;19.604;2022-12-31T15:49:20;101344.88;;;12.78;78.98
28628;BME280;15815;46.760;19.604;2022-12-31T15:54:29;101355.34;;;12.81;79.59
28628;BME280;15815;46.760;19.604;2022-12-31T15:56:59;101332.72;;;12.63;80.63
28628;BME280;15815;46.760;19.604;2022-12-31T15:59:25;101352.78;;;12.58;80.76
28628;BME280;15815;46.760;19.604;2022-12-31T16:01:53;101345.09;;;12.51;81.82
28628;BME280;15815;46.760;19.604;2022-12-31T16:04:25;101342.66;;;12.46;81.82
28628;BME280;15815;46.760;19.604;2022-12-31T16:06:51;101335.00;;;12.43;82.83
28628;BME280;15815;46.760;19.604;2022-12-31T16:09:29;101317.56;;;12.27;82.48
28628;BME280;15815;46.760;19.604;2022-12-31T16:11:57;101323.59;;;12.29;82.88
28628;BME280;15815;46.760;19.604;2022-12-31T16:14:35;101331.19;;;12.21;83.31
28628;BME280;15815;46.760;19.604;2022-12-31T16:17:02;101333.22;;;12.21;83.61
28628;BME280;15815;46.760;19.604;2022-12-31T16:19:43;101337.94;;;12.06;83.78
28628;BME280;15815;46.760;19.604;2022-12-31T16:22:22;101335.41;;;11.94;83.74
28628;BME280;15815;46.760;19.604;2022-12-31T16:24:58;101333.59;;;11.75;83.95
28628;BME280;15815;46.760;19.604;2022-12-31T16:27:26;101356.22;;;11.79;83.09
28628;BME280;15815;46.760;19.604;2022-12-31T16:29:58;101329.81;;;11.57;84.51
28628;BME280;15815;46.760;19.604;2022-12-31T16:32:25;101361.28;;;11.66;85.97
28628;BME280;15815;46.760;19.604;2022-12-31T16:34:51;101329.34;;;11.51;85.14
28628;BME280;15815;46.760;19.604;2022-12-31T16:37:19;101308.28;;;11.38;85.61
28628;BME280;15815;46.760;19.604;2022-12-31T16:42:25;101341.34;;;11.44;86.90
28628;BME280;15815;46.760;19.604;2022-12-31T16:44:56;101341.72;;;11.43;86.85
28628;BME280;15815;46.760;19.604;2022-12-31T16:47:30;101360.38;;;11.55;87.51
28628;BME280;15815;46.760;19.604;2022-12-31T16:52:36;101370.59;;;11.36;87.63
28628;BME280;15815;46.760;19.604;2022-12-31T16:55:07;101372.56;;;11.32;87.85